Ashland, Alabama
Current Conditions -  °F | °C
As of 11:53 AM on Wednesday 26 Nov 2014 (Local Time) from KANB Reporting Station
Clear Clear  
Wind Chill: 53°   Ceiling: Unl
Heat Index: 53°   Visibility: 10mi
Dew Point: 26°   Wind: 12mph
Humidity: 35%   Direction: 230°SW
Pressure: 30.14"   Gusts: NA
Location:  33.27°N, 85.84°W
Report Text: KANB 261753Z AUTO 23010KT 10SM CLR 12/M03 A3014 RMK AO2 SLP209 T01171033 10122 20022 58012
Loading
Personal Weather Stations






























Interactive Weather Map New forecast layout! Learn more

10-Day Weather Forecast

Advertisements
Track Severe Weather on mobile